createdAt,value
2019-04-30T00:00:18.339Z,98.49
2019-04-30T00:01:19.007Z,98.79
2019-04-30T00:02:17.662Z,98.69
2019-04-30T00:03:19.582Z,98.79
2019-04-30T00:04:17.611Z,98.90
2019-04-30T00:05:18.862Z,98.38
2019-04-30T00:06:17.614Z,98.59
2019-04-30T00:07:19.031Z,98.38
2019-04-30T00:08:17.578Z,98.44
2019-04-30T00:09:19.208Z,98.59
2019-04-30T00:10:17.543Z,98.44
2019-04-30T00:11:19.521Z,98.69
2019-04-30T00:12:17.546Z,98.49
2019-04-30T00:13:20.884Z,98.49
2019-04-30T00:14:17.521Z,98.63
2019-04-30T00:15:19.435Z,98.79
2019-04-30T00:16:17.475Z,98.49
2019-04-30T00:17:19.604Z,98.79
2019-04-30T00:18:17.454Z,98.69
2019-04-30T00:19:19.719Z,99.00
2019-04-30T00:20:17.757Z,98.79
2019-04-30T00:21:18.833Z,99.21
2019-04-30T00:22:17.414Z,99.10
2019-04-30T00:23:18.086Z,98.69
2019-04-30T00:24:18.408Z,98.79
2019-04-30T00:25:19.634Z,98.90
2019-04-30T00:26:18.362Z,98.79
2019-04-30T00:27:21.085Z,99.00
2019-04-30T00:28:18.337Z,98.90
2019-04-30T00:29:26.544Z,99.00
2019-04-30T00:30:18.314Z,99.00
2019-04-30T00:31:23.506Z,99.10
2019-04-30T00:32:18.292Z,99.21
2019-04-30T00:33:22.272Z,99.21
2019-04-30T00:34:18.299Z,99.31
2019-04-30T00:35:19.570Z,99.21
2019-04-30T00:36:17.453Z,99.00
2019-04-30T00:37:18.774Z,99.41
2019-04-30T00:38:17.226Z,99.21
2019-04-30T00:39:17.218Z,99.15
2019-04-30T00:40:17.228Z,99.05
2019-04-30T00:41:17.195Z,99.25
2019-04-30T00:42:23.993Z,99.25
2019-04-30T00:43:18.167Z,99.05
2019-04-30T00:44:19.978Z,99.19
2019-04-30T00:45:18.175Z,98.94
2019-04-30T00:46:24.739Z,98.88
2019-04-30T00:47:18.123Z,99.30
2019-04-30T00:48:26.916Z,98.62
2019-04-30T00:49:22.954Z,98.42
2019-04-30T00:50:18.123Z,99.04
2019-04-30T00:51:21.119Z,99.04
2019-04-30T00:52:17.067Z,98.77
2019-04-30T00:53:17.055Z,98.77
2019-04-30T00:54:17.650Z,98.71
2019-04-30T00:55:17.033Z,98.46
2019-04-30T00:56:19.890Z,98.88
2019-04-30T00:57:18.017Z,98.36
2019-04-30T00:58:25.083Z,98.92
2019-04-30T00:59:17.986Z,98.61
2019-04-30T01:00:24.849Z,98.86
2019-04-30T01:01:17.999Z,99.07
2019-04-30T01:02:19.931Z,98.76
2019-04-30T01:03:17.968Z,98.76
2019-04-30T01:04:19.346Z,98.91
2019-04-30T01:05:17.924Z,98.91
2019-04-30T01:06:24.003Z,98.80
2019-04-30T01:07:17.900Z,98.91
2019-04-30T01:08:21.054Z,98.91
2019-04-30T01:09:17.876Z,98.60
2019-04-30T01:10:19.534Z,99.16
2019-04-30T01:11:17.852Z,99.57
2019-04-30T01:12:24.283Z,99.43
2019-04-30T01:13:19.193Z,98.96
2019-04-30T01:14:18.728Z,99.16
2019-04-30T01:15:16.811Z,99.26
2019-04-30T01:16:16.802Z,99.47
2019-04-30T01:17:16.786Z,99.57
2019-04-30T01:18:16.799Z,99.37
2019-04-30T01:19:27.513Z,99.99
2019-04-30T01:20:19.335Z,99.99
2019-04-30T01:21:18.401Z,99.99
2019-04-30T01:22:21.523Z,99.99
2019-04-30T01:23:19.386Z,99.99
2019-04-30T01:24:16.711Z,99.99
2019-04-30T01:25:16.701Z,99.99
2019-04-30T01:26:18.607Z,99.99
2019-04-30T01:27:18.705Z,99.99
2019-04-30T01:28:23.153Z,99.99
2019-04-30T01:29:19.285Z,99.99
2019-04-30T01:30:18.665Z,99.99
2019-04-30T01:31:18.764Z,99.99
2019-04-30T01:32:20.484Z,99.99
2019-04-30T01:33:16.632Z,99.99
2019-04-30T01:34:16.594Z,99.99
2019-04-30T01:35:16.589Z,99.99
2019-04-30T01:36:16.577Z,99.99
2019-04-30T01:37:16.582Z,99.99
2019-04-30T01:38:16.578Z,99.99
2019-04-30T01:39:16.544Z,99.99
2019-04-30T01:40:18.823Z,99.99
2019-04-30T01:41:20.338Z,99.99
2019-04-30T01:42:18.524Z,99.99
2019-04-30T01:43:16.523Z,99.99
2019-04-30T01:44:16.488Z,99.99
2019-04-30T01:45:16.500Z,99.99
2019-04-30T01:46:16.481Z,99.99
2019-04-30T01:47:16.457Z,99.99
2019-04-30T01:48:16.442Z,99.99
2019-04-30T01:49:19.975Z,99.99
2019-04-30T01:50:16.428Z,99.99
2019-04-30T01:51:20.451Z,99.99
2019-04-30T01:52:19.255Z,99.99
2019-04-30T01:53:16.382Z,99.99
2019-04-30T01:54:20.845Z,99.99
2019-04-30T01:55:17.400Z,99.99
2019-04-30T01:56:16.349Z,99.99
2019-04-30T01:57:16.339Z,99.99
2019-04-30T01:58:16.331Z,99.99
2019-04-30T01:59:16.326Z,99.99
2019-04-30T02:00:16.305Z,99.99
2019-04-30T02:01:16.317Z,99.99
2019-04-30T02:02:16.289Z,99.99
2019-04-30T02:03:16.272Z,99.99
2019-04-30T02:04:16.263Z,99.99
2019-04-30T02:05:16.248Z,99.99
2019-04-30T02:06:16.267Z,99.99
2019-04-30T02:07:16.228Z,99.99
2019-04-30T02:08:16.221Z,99.99
2019-04-30T02:09:16.205Z,99.99
2019-04-30T02:10:16.194Z,99.99
2019-04-30T02:11:16.206Z,99.99
2019-04-30T02:12:16.169Z,99.99
2019-04-30T02:13:16.186Z,99.99
2019-04-30T02:14:16.155Z,99.99
2019-04-30T02:15:16.139Z,99.99
2019-04-30T02:16:16.126Z,99.99
2019-04-30T02:17:16.113Z,99.99
2019-04-30T02:18:16.226Z,99.99
2019-04-30T02:19:16.091Z,99.99
2019-04-30T02:20:16.081Z,99.99
2019-04-30T02:21:16.072Z,99.99
2019-04-30T02:22:16.057Z,99.99
2019-04-30T02:23:16.071Z,99.99
2019-04-30T02:24:16.039Z,99.99
2019-04-30T02:25:16.032Z,99.99
2019-04-30T02:26:16.022Z,99.99
2019-04-30T02:27:16.030Z,99.99
2019-04-30T02:28:15.992Z,99.99
2019-04-30T02:29:16.008Z,99.99
2019-04-30T02:30:15.968Z,99.99
2019-04-30T02:31:15.959Z,99.99
2019-04-30T02:32:15.956Z,99.99
2019-04-30T02:33:15.969Z,99.99
2019-04-30T02:34:15.935Z,99.99
2019-04-30T02:35:15.939Z,99.99
2019-04-30T02:36:15.903Z,99.99
2019-04-30T02:37:15.898Z,99.99
2019-04-30T02:38:15.881Z,99.99
2019-04-30T02:39:15.883Z,99.99
2019-04-30T02:40:15.873Z,99.99
2019-04-30T02:41:15.844Z,99.99
2019-04-30T02:42:15.838Z,99.99
2019-04-30T02:43:15.827Z,99.99
2019-04-30T02:44:15.832Z,99.99
2019-04-30T02:45:15.806Z,99.99
2019-04-30T02:46:15.792Z,99.99
2019-04-30T02:47:15.781Z,99.99
2019-04-30T02:48:15.773Z,99.99
2019-04-30T02:49:15.786Z,99.99
2019-04-30T02:50:19.786Z,99.99
2019-04-30T02:51:16.735Z,99.99
2019-04-30T02:52:15.721Z,99.99
2019-04-30T02:53:15.710Z,99.99
2019-04-30T02:54:15.743Z,99.99
2019-04-30T02:55:15.696Z,99.99
2019-04-30T02:56:15.683Z,99.99
2019-04-30T02:57:15.676Z,99.99
2019-04-30T02:58:15.667Z,99.99
2019-04-30T02:59:15.673Z,99.99
2019-04-30T03:00:15.632Z,99.99
2019-04-30T03:01:15.630Z,99.99
2019-04-30T03:02:15.611Z,99.99
2019-04-30T03:03:15.620Z,99.99
2019-04-30T03:04:15.609Z,99.99
2019-04-30T03:05:15.580Z,99.99
2019-04-30T03:06:15.592Z,99.99
2019-04-30T03:07:15.587Z,99.99
2019-04-30T03:08:15.552Z,99.99
2019-04-30T03:09:15.546Z,99.99
2019-04-30T03:10:15.549Z,99.99
2019-04-30T03:11:15.539Z,99.99
2019-04-30T03:12:15.503Z,99.99
2019-04-30T03:13:15.491Z,99.99
2019-04-30T03:14:15.508Z,99.99
2019-04-30T03:15:15.465Z,99.99
2019-04-30T03:16:15.454Z,99.99
2019-04-30T03:17:15.442Z,99.99
2019-04-30T03:18:15.429Z,99.99
2019-04-30T03:19:15.442Z,99.99
2019-04-30T03:20:30.970Z,99.99
2019-04-30T03:21:19.066Z,99.99
2019-04-30T03:22:15.387Z,99.99
2019-04-30T03:23:15.400Z,99.99
2019-04-30T03:24:15.363Z,99.99
2019-04-30T03:25:15.352Z,99.99
2019-04-30T03:26:15.348Z,99.99
2019-04-30T03:27:15.329Z,99.99
2019-04-30T03:28:15.342Z,99.99
2019-04-30T03:29:15.338Z,99.99
2019-04-30T03:30:15.297Z,99.99
2019-04-30T03:31:15.294Z,99.99
2019-04-30T03:32:15.298Z,99.99
2019-04-30T03:33:15.264Z,99.99
2019-04-30T03:34:24.365Z,99.99
2019-04-30T03:35:16.238Z,99.99
2019-04-30T03:36:15.255Z,99.99
2019-04-30T03:37:15.217Z,99.99
2019-04-30T03:38:15.234Z,99.99
2019-04-30T03:39:15.206Z,99.99
2019-04-30T03:40:15.208Z,99.99
2019-04-30T03:41:15.176Z,99.99
2019-04-30T03:42:15.162Z,99.99
2019-04-30T03:43:15.153Z,99.99
2019-04-30T03:44:21.674Z,99.99
2019-04-30T03:45:16.152Z,99.99
2019-04-30T03:46:15.119Z,99.99
2019-04-30T03:47:15.105Z,99.99
2019-04-30T03:48:15.104Z,99.99
2019-04-30T03:49:15.105Z,99.99
2019-04-30T03:50:15.071Z,99.99
2019-04-30T03:51:15.061Z,99.99
2019-04-30T03:52:15.052Z,99.99
2019-04-30T03:53:15.039Z,99.99
2019-04-30T03:54:15.056Z,99.99
2019-04-30T03:55:15.019Z,99.99
2019-04-30T03:56:15.007Z,99.99
2019-04-30T03:57:14.993Z,99.99
2019-04-30T03:58:14.982Z,99.99
2019-04-30T03:59:14.996Z,99.99
2019-04-30T04:00:14.966Z,99.99
2019-04-30T04:01:14.951Z,99.99
2019-04-30T04:02:14.936Z,99.99
2019-04-30T04:03:14.926Z,99.99
2019-04-30T04:04:14.947Z,99.99
2019-04-30T04:05:14.912Z,99.99
2019-04-30T04:06:14.892Z,99.99
2019-04-30T04:07:14.881Z,99.99
2019-04-30T04:08:14.869Z,99.99
2019-04-30T04:09:14.900Z,99.99
2019-04-30T04:10:14.897Z,99.99
2019-04-30T04:11:14.840Z,99.99
2019-04-30T04:12:14.825Z,99.99
2019-04-30T04:13:14.815Z,99.99
2019-04-30T04:14:14.830Z,99.99
2019-04-30T04:15:14.791Z,99.99
2019-04-30T04:16:14.784Z,99.99
2019-04-30T04:17:14.772Z,99.99
2019-04-30T04:18:14.757Z,99.99
2019-04-30T04:19:14.776Z,99.99
2019-04-30T04:20:14.736Z,99.99
2019-04-30T04:21:16.869Z,99.99
2019-04-30T04:22:14.743Z,99.99
2019-04-30T04:23:14.704Z,99.99
2019-04-30T04:24:14.715Z,99.99
2019-04-30T04:25:14.679Z,99.99
2019-04-30T04:26:14.666Z,99.99
2019-04-30T04:27:14.656Z,99.99
2019-04-30T04:28:14.669Z,99.99
2019-04-30T04:29:14.653Z,99.99
2019-04-30T04:30:14.624Z,99.99
2019-04-30T04:31:14.637Z,99.99
2019-04-30T04:32:14.601Z,99.99
2019-04-30T04:33:14.589Z,99.99
2019-04-30T04:34:14.606Z,99.99
2019-04-30T04:35:14.592Z,99.99
2019-04-30T04:36:14.561Z,99.99
2019-04-30T04:37:14.543Z,99.99
2019-04-30T04:38:14.566Z,99.99
2019-04-30T04:39:14.521Z,99.99
2019-04-30T04:40:14.510Z,99.99
2019-04-30T04:41:14.522Z,99.99
2019-04-30T04:42:14.490Z,99.99
2019-04-30T04:43:14.478Z,99.99
2019-04-30T04:44:14.464Z,99.99
2019-04-30T04:45:14.455Z,99.99
2019-04-30T04:46:14.472Z,99.99
2019-04-30T04:47:16.150Z,99.99
2019-04-30T04:48:14.422Z,99.99
2019-04-30T04:49:14.433Z,99.99
2019-04-30T04:50:14.398Z,99.99
2019-04-30T04:51:27.660Z,99.99
2019-04-30T04:52:15.378Z,99.99
2019-04-30T04:53:14.364Z,99.99
2019-04-30T04:54:14.377Z,99.99
2019-04-30T04:55:14.345Z,99.99
2019-04-30T04:56:14.351Z,99.99
2019-04-30T04:57:18.411Z,99.99
2019-04-30T04:58:15.306Z,99.99
2019-04-30T04:59:14.329Z,99.99
2019-04-30T05:00:14.289Z,99.99
2019-04-30T05:01:14.275Z,99.99
2019-04-30T05:02:14.265Z,99.99
2019-04-30T05:03:14.253Z,99.99
2019-04-30T05:04:14.264Z,99.99
2019-04-30T05:05:14.233Z,99.99
2019-04-30T05:06:14.246Z,99.99
2019-04-30T05:07:14.210Z,99.99
2019-04-30T05:08:14.216Z,99.99
2019-04-30T05:09:14.184Z,99.99
2019-04-30T05:10:14.203Z,99.99
2019-04-30T05:11:14.192Z,99.99
2019-04-30T05:12:14.169Z,99.99
2019-04-30T05:13:14.151Z,99.99
2019-04-30T05:14:14.151Z,99.99
2019-04-30T05:15:14.163Z,99.99
2019-04-30T05:16:14.107Z,99.99
2019-04-30T05:17:14.097Z,99.99
2019-04-30T05:18:14.110Z,99.99
2019-04-30T05:19:14.200Z,99.99
2019-04-30T05:20:14.088Z,99.99
2019-04-30T05:21:14.082Z,99.99
2019-04-30T05:22:14.040Z,99.99
2019-04-30T05:23:14.033Z,99.99
2019-04-30T05:24:14.016Z,99.99
2019-04-30T05:25:14.005Z,99.99
2019-04-30T05:26:14.013Z,99.99
2019-04-30T05:27:13.988Z,99.99
2019-04-30T05:28:14.000Z,99.99
2019-04-30T05:29:13.960Z,99.99
2019-04-30T05:30:13.949Z,99.99
2019-04-30T05:31:13.955Z,99.99
2019-04-30T05:32:13.927Z,99.99
2019-04-30T05:33:13.916Z,99.99
2019-04-30T05:34:13.907Z,99.99
2019-04-30T05:35:13.895Z,99.99
2019-04-30T05:36:13.899Z,99.99
2019-04-30T05:37:13.872Z,99.99
2019-04-30T05:38:13.859Z,99.99
2019-04-30T05:39:13.865Z,99.99
2019-04-30T05:40:13.838Z,99.99
2019-04-30T05:41:13.857Z,99.99
2019-04-30T05:42:13.817Z,99.99
2019-04-30T05:43:13.804Z,99.99
2019-04-30T05:44:13.794Z,99.73
2019-04-30T05:45:13.782Z,99.01
2019-04-30T05:46:14.163Z,99.01
2019-04-30T05:47:13.759Z,98.70
2019-04-30T05:48:13.747Z,98.35
2019-04-30T05:49:13.737Z,98.66
2019-04-30T05:50:13.742Z,97.52
2019-04-30T05:51:13.737Z,97.31
2019-04-30T05:52:13.736Z,96.45
2019-04-30T05:53:13.691Z,96.14
2019-04-30T05:54:13.681Z,95.27
2019-04-30T05:55:13.701Z,94.85
2019-04-30T05:56:13.659Z,93.79
2019-04-30T05:57:13.651Z,94.05
2019-04-30T05:58:13.639Z,93.43
2019-04-30T05:59:13.625Z,93.04
2019-04-30T06:00:13.637Z,91.80
2019-04-30T06:01:13.605Z,90.57
2019-04-30T06:02:13.596Z,90.22
2019-04-30T06:03:25.174Z,90.18
2019-04-30T06:04:14.566Z,89.87
2019-04-30T06:05:13.579Z,88.23
2019-04-30T06:06:13.545Z,88.12
2019-04-30T06:07:13.567Z,88.12
2019-04-30T06:08:13.521Z,87.61
2019-04-30T06:09:18.734Z,87.92
2019-04-30T06:10:14.499Z,88.02
2019-04-30T06:11:13.488Z,88.53
2019-04-30T06:12:13.502Z,88.29
2019-04-30T06:13:13.467Z,86.65
2019-04-30T06:14:13.454Z,86.30
2019-04-30T06:15:13.466Z,87.73
2019-04-30T06:16:13.434Z,85.78
2019-04-30T06:17:13.444Z,85.17
2019-04-30T06:18:14.112Z,84.49
2019-04-30T06:19:13.397Z,84.39
2019-04-30T06:20:18.240Z,85.31
2019-04-30T06:21:14.374Z,84.90
2019-04-30T06:22:13.394Z,85.47
2019-04-30T06:23:13.376Z,84.14
2019-04-30T06:24:13.349Z,84.55
2019-04-30T06:25:13.331Z,84.14
2019-04-30T06:26:13.424Z,83.63
2019-04-30T06:27:13.307Z,84.04
2019-04-30T06:28:13.295Z,84.10
2019-04-30T06:29:13.313Z,83.94
2019-04-30T06:30:13.274Z,83.83
2019-04-30T06:31:13.262Z,84.34
2019-04-30T06:32:13.251Z,84.55
2019-04-30T06:33:13.290Z,83.32
2019-04-30T06:34:13.229Z,83.01
2019-04-30T06:35:13.219Z,84.34
2019-04-30T06:36:13.205Z,84.14
2019-04-30T06:37:13.196Z,82.87
2019-04-30T06:38:13.201Z,82.87
2019-04-30T06:39:13.173Z,81.40
2019-04-30T06:40:13.161Z,81.50
2019-04-30T06:41:13.150Z,80.68
2019-04-30T06:42:13.206Z,80.95
2019-04-30T06:43:13.127Z,80.30
2019-04-30T06:44:13.115Z,80.09
2019-04-30T06:45:13.105Z,80.05
2019-04-30T06:46:13.092Z,78.42
2019-04-30T06:47:13.118Z,78.63
2019-04-30T06:48:13.072Z,79.13
2019-04-30T06:49:13.059Z,78.08
2019-04-30T06:50:13.062Z,77.36
2019-04-30T06:51:13.037Z,77.29
2019-04-30T06:52:20.523Z,77.15
2019-04-30T06:53:14.011Z,77.91
2019-04-30T06:54:13.004Z,77.39
2019-04-30T06:55:13.019Z,77.91
2019-04-30T06:56:12.981Z,76.68
2019-04-30T06:57:12.972Z,76.57
2019-04-30T06:58:15.580Z,77.15
2019-04-30T06:59:12.974Z,77.26
2019-04-30T07:00:12.935Z,77.36
2019-04-30T07:01:12.952Z,79.27
2019-04-30T07:02:12.912Z,75.65
2019-04-30T07:03:12.907Z,74.02
2019-04-30T07:04:12.911Z,73.94
2019-04-30T07:05:12.879Z,74.69
2019-04-30T07:06:12.882Z,75.72
2019-04-30T07:07:14.262Z,75.68
2019-04-30T07:08:13.843Z,74.66
2019-04-30T07:09:12.851Z,74.49
2019-04-30T07:10:16.782Z,74.66
2019-04-30T07:11:13.829Z,74.22
2019-04-30T07:12:22.978Z,74.39
2019-04-30T07:13:13.787Z,73.91
2019-04-30T07:14:12.780Z,74.22
2019-04-30T07:15:13.755Z,73.47
2019-04-30T07:16:12.755Z,73.06
2019-04-30T07:17:12.765Z,72.96
2019-04-30T07:18:12.734Z,71.83
2019-04-30T07:19:12.746Z,71.97
2019-04-30T07:20:12.709Z,71.70
2019-04-30T07:21:12.698Z,72.41
2019-04-30T07:22:12.689Z,72.72
2019-04-30T07:23:12.678Z,71.29
2019-04-30T07:24:12.690Z,71.36
2019-04-30T07:25:12.654Z,72.62
2019-04-30T07:26:13.771Z,73.10
2019-04-30T07:27:13.630Z,72.24
2019-04-30T07:28:12.643Z,71.46
2019-04-30T07:29:12.608Z,72.45
2019-04-30T07:30:12.614Z,70.92
2019-04-30T07:31:14.585Z,73.06
2019-04-30T07:32:12.573Z,73.23
2019-04-30T07:33:12.585Z,71.59
2019-04-30T07:34:12.553Z,71.15
2019-04-30T07:35:12.556Z,71.63
2019-04-30T07:36:12.530Z,71.60
2019-04-30T07:38:13.522Z,69.22
2019-04-30T07:39:12.495Z,69.12
2019-04-30T07:40:12.512Z,68.91
2019-04-30T07:41:12.490Z,67.59
2019-04-30T07:42:12.460Z,67.90
2019-04-30T07:43:12.452Z,64.66
2019-04-30T07:44:29.413Z,66.09
2019-04-30T07:45:13.426Z,65.04
2019-04-30T07:46:12.442Z,63.51
2019-04-30T07:47:12.408Z,63.71
2019-04-30T07:48:12.416Z,63.48
2019-04-30T07:49:12.382Z,65.11
2019-04-30T07:50:12.853Z,66.03
2019-04-30T07:51:12.797Z,62.56
2019-04-30T07:52:13.003Z,63.38
2019-04-30T07:53:13.033Z,65.42
2019-04-30T07:54:12.329Z,65.92
2019-04-30T07:55:12.349Z,64.06
2019-04-30T07:56:24.142Z,62.84
2019-04-30T07:57:13.291Z,63.93
2019-04-30T07:58:12.429Z,64.95
2019-04-30T07:59:12.274Z,62.68
2019-04-30T08:00:12.285Z,64.07
2019-04-30T08:01:12.246Z,64.31
2019-04-30T08:02:14.857Z,63.46
2019-04-30T08:03:12.636Z,63.87
2019-04-30T08:04:12.212Z,61.20
2019-04-30T08:05:12.202Z,60.49
2019-04-30T08:06:12.260Z,58.71
2019-04-30T08:07:12.200Z,61.76
2019-04-30T08:08:20.782Z,62.58
2019-04-30T08:09:13.157Z,60.98
2019-04-30T08:09:34.989Z,69.42
2019-04-30T08:10:12.145Z,63.01
2019-04-30T08:11:23.129Z,63.87
2019-04-30T08:12:22.004Z,62.45
2019-04-30T08:13:15.179Z,63.36
2019-04-30T08:14:12.099Z,63.64
2019-04-30T08:15:12.114Z,59.47
2019-04-30T08:16:12.079Z,57.67
2019-04-30T08:17:12.065Z,59.91
2019-04-30T08:18:12.053Z,59.80
2019-04-30T08:19:12.067Z,59.01
2019-04-30T08:20:12.031Z,60.54
2019-04-30T08:21:12.045Z,61.53
2019-04-30T08:22:12.029Z,59.63
2019-04-30T08:23:20.268Z,60.00
2019-04-30T08:24:12.988Z,60.21
2019-04-30T08:25:11.978Z,59.09
2019-04-30T08:26:11.996Z,59.83
2019-04-30T08:27:11.955Z,60.27
2019-04-30T08:28:11.941Z,60.85
2019-04-30T08:29:11.931Z,61.29
2019-04-30T08:30:21.258Z,62.98
2019-04-30T08:31:15.554Z,60.95
2019-04-30T08:32:11.923Z,61.13
2019-04-30T08:33:11.887Z,62.39
2019-04-30T08:34:11.874Z,61.47
2019-04-30T08:35:11.864Z,60.74
2019-04-30T08:36:11.850Z,60.60
2019-04-30T08:37:17.153Z,56.80
2019-04-30T08:38:12.825Z,61.27
2019-04-30T08:39:11.840Z,60.66
2019-04-30T08:40:11.809Z,58.12
2019-04-30T08:41:11.803Z,60.40
2019-04-30T08:42:11.788Z,58.70
2019-04-30T08:43:11.796Z,57.99
2019-04-30T08:44:11.767Z,59.24
2019-04-30T08:45:11.763Z,59.54
2019-04-30T08:46:11.768Z,58.78
2019-04-30T08:47:11.734Z,58.17
2019-04-30T08:48:11.717Z,58.17
2019-04-30T08:49:11.799Z,58.14
2019-04-30T08:50:11.898Z,59.36
2019-04-30T08:51:13.707Z,58.78
2019-04-30T08:52:11.941Z,59.41
2019-04-30T08:53:11.898Z,58.70
2019-04-30T08:54:11.650Z,58.47
2019-04-30T08:55:16.550Z,59.28
2019-04-30T08:56:12.655Z,59.59
2019-04-30T08:57:11.644Z,57.43
2019-04-30T08:58:14.914Z,57.71
2019-04-30T08:59:11.620Z,58.62
2019-04-30T09:00:12.138Z,56.62
2019-04-30T09:01:11.574Z,58.88
2019-04-30T09:02:15.829Z,58.88
2019-04-30T09:03:11.549Z,60.50
2019-04-30T09:04:11.590Z,57.60
2019-04-30T09:05:11.524Z,58.54
2019-04-30T09:06:11.513Z,56.72
2019-04-30T09:07:11.502Z,58.37
2019-04-30T09:08:11.493Z,57.76
2019-04-30T09:09:11.528Z,57.59
2019-04-30T09:10:11.486Z,58.70
2019-04-30T09:11:22.501Z,58.09
2019-04-30T09:12:12.451Z,57.46
2019-04-30T09:13:11.436Z,57.43
2019-04-30T09:14:11.453Z,56.21
2019-04-30T09:15:11.413Z,56.72
2019-04-30T09:16:11.407Z,55.60
2019-04-30T09:17:11.392Z,57.93
2019-04-30T09:18:12.602Z,57.23
2019-04-30T09:19:11.368Z,59.46
2019-04-30T09:20:11.389Z,58.54
2019-04-30T09:21:11.353Z,58.04
2019-04-30T09:22:15.109Z,58.24
2019-04-30T09:23:11.396Z,55.98
2019-04-30T09:24:11.336Z,58.52
2019-04-30T09:25:11.335Z,57.37
2019-04-30T09:26:11.289Z,55.96
2019-04-30T09:27:11.281Z,56.03
2019-04-30T09:28:11.267Z,54.11
2019-04-30T09:29:11.261Z,55.63
2019-04-30T09:30:11.284Z,55.83
2019-04-30T09:31:11.234Z,55.25
2019-04-30T09:32:11.223Z,58.11
2019-04-30T09:33:11.305Z,57.98
2019-04-30T09:34:17.559Z,56.97
2019-04-30T09:35:12.214Z,58.90
2019-04-30T09:36:11.177Z,55.68
2019-04-30T09:37:11.174Z,55.91
2019-04-30T09:38:11.159Z,56.82
2019-04-30T09:39:11.191Z,55.98
2019-04-30T09:40:17.925Z,55.96
2019-04-30T09:41:12.166Z,56.16
2019-04-30T09:42:11.115Z,56.29
2019-04-30T09:43:11.138Z,54.18
2019-04-30T09:44:11.090Z,55.50
2019-04-30T09:45:11.076Z,56.59
2019-04-30T09:46:19.133Z,56.26
2019-04-30T09:47:12.056Z,56.70
2019-04-30T09:48:11.070Z,55.88
2019-04-30T09:49:11.038Z,55.76
2019-04-30T09:50:11.028Z,55.52
2019-04-30T09:51:11.535Z,55.93
2019-04-30T09:52:11.334Z,55.60
2019-04-30T09:53:11.289Z,58.13
2019-04-30T09:54:12.794Z,54.11
2019-04-30T09:55:11.240Z,56.13
2019-04-30T09:56:10.952Z,56.36
2019-04-30T09:57:11.470Z,56.57
2019-04-30T09:58:16.945Z,56.13
2019-04-30T09:59:11.918Z,54.08
2019-04-30T10:00:10.913Z,56.10
2019-04-30T10:01:10.928Z,55.17
2019-04-30T10:02:10.887Z,54.94
2019-04-30T10:03:11.510Z,54.05
2019-04-30T10:04:11.441Z,53.88
2019-04-30T10:05:11.692Z,55.10
2019-04-30T10:06:10.888Z,56.31
2019-04-30T10:07:10.828Z,55.88
2019-04-30T10:08:10.818Z,56.36
2019-04-30T10:09:10.804Z,56.53
2019-04-30T10:10:11.406Z,53.58
2019-04-30T10:11:10.809Z,53.75
2019-04-30T10:12:10.771Z,53.70
2019-04-30T10:13:10.762Z,53.45
2019-04-30T10:14:10.752Z,53.75
2019-04-30T10:15:10.776Z,54.99
2019-04-30T10:16:10.727Z,53.88
2019-04-30T10:17:10.714Z,53.98
2019-04-30T10:18:10.702Z,55.07
2019-04-30T10:19:10.696Z,54.36
2019-04-30T10:20:10.707Z,54.64
2019-04-30T10:21:10.671Z,54.13
2019-04-30T10:22:10.664Z,54.03
2019-04-30T10:23:10.646Z,54.74
2019-04-30T10:24:15.490Z,54.91
2019-04-30T10:25:11.649Z,53.09
2019-04-30T10:26:10.611Z,52.92
2019-04-30T10:27:13.249Z,53.80
2019-04-30T10:28:10.609Z,51.98
2019-04-30T10:29:10.622Z,52.08
2019-04-30T10:30:10.596Z,54.03
2019-04-30T10:31:10.571Z,52.51
2019-04-30T10:32:10.556Z,52.89
2019-04-30T10:33:10.537Z,52.97
2019-04-30T10:34:10.522Z,52.28
2019-04-30T10:35:10.534Z,52.48
2019-04-30T10:36:10.507Z,53.98
2019-04-30T10:37:10.495Z,51.28
2019-04-30T10:38:10.511Z,52.67
2019-04-30T10:39:10.512Z,52.03
2019-04-30T10:40:10.590Z,51.12
2019-04-30T10:41:10.475Z,49.84
2019-04-30T10:42:10.431Z,51.98
2019-04-30T10:43:10.432Z,52.01
2019-04-30T10:44:10.448Z,53.60
2019-04-30T10:45:10.399Z,52.69
2019-04-30T10:46:10.398Z,55.19
2019-04-30T10:47:10.413Z,50.72
2019-04-30T10:48:10.375Z,51.65
2019-04-30T10:49:10.355Z,52.46
2019-04-30T10:50:10.343Z,53.47
2019-04-30T10:51:10.342Z,52.34
2019-04-30T10:52:10.398Z,50.84
2019-04-30T10:53:12.416Z,54.00
2019-04-30T10:54:23.026Z,54.89
2019-04-30T10:55:11.284Z,52.76
2019-04-30T10:56:10.383Z,51.83
2019-04-30T10:57:10.272Z,52.56
2019-04-30T10:58:10.256Z,51.81
2019-04-30T10:59:10.269Z,53.75
2019-04-30T11:00:10.230Z,52.51
2019-04-30T11:01:10.220Z,49.38
2019-04-30T11:02:10.210Z,50.82
2019-04-30T11:03:19.255Z,50.21
2019-04-30T11:04:11.187Z,51.73
2019-04-30T11:05:10.177Z,53.42
2019-04-30T11:06:10.164Z,53.42
2019-04-30T11:07:10.151Z,50.70
2019-04-30T11:08:10.217Z,50.19
2019-04-30T11:09:10.127Z,50.47
2019-04-30T11:10:10.135Z,52.39
2019-04-30T11:11:10.109Z,52.39
2019-04-30T11:12:10.095Z,50.65
2019-04-30T11:13:10.117Z,51.89
2019-04-30T11:14:10.072Z,52.16
2019-04-30T11:15:10.064Z,50.04
2019-04-30T11:16:15.177Z,52.26
2019-04-30T11:17:11.272Z,49.26
2019-04-30T11:18:10.212Z,50.67
2019-04-30T11:19:10.218Z,51.68
2019-04-30T11:20:10.472Z,50.32
2019-04-30T11:21:10.251Z,52.06
2019-04-30T11:22:10.235Z,50.04
2019-04-30T11:23:14.509Z,49.24
2019-04-30T11:24:11.211Z,51.05
2019-04-30T11:25:10.476Z,50.82
2019-04-30T11:26:10.447Z,49.62
2019-04-30T11:27:11.174Z,49.92
2019-04-30T11:28:10.531Z,50.70
2019-04-30T11:29:10.099Z,49.77
2019-04-30T11:30:20.183Z,48.16
2019-04-30T11:31:11.044Z,49.27
2019-04-30T11:32:10.059Z,49.47
2019-04-30T11:33:10.131Z,49.95
2019-04-30T11:34:09.861Z,47.75
2019-04-30T11:35:09.865Z,47.45
2019-04-30T11:36:09.832Z,49.24
2019-04-30T11:37:09.825Z,48.06
2019-04-30T11:38:09.806Z,49.59
2019-04-30T11:39:09.796Z,49.33
2019-04-30T11:40:09.806Z,51.76
2019-04-30T11:41:09.795Z,51.18
2019-04-30T11:42:09.758Z,51.20
2019-04-30T11:43:09.749Z,51.89
2019-04-30T11:44:09.736Z,51.86
2019-04-30T11:45:09.752Z,49.96
2019-04-30T11:46:09.712Z,49.96
2019-04-30T11:47:09.705Z,52.09
2019-04-30T11:48:09.812Z,52.87
2019-04-30T11:49:09.765Z,51.03
2019-04-30T11:50:09.669Z,51.53
2019-04-30T11:51:09.659Z,50.50
2019-04-30T11:52:09.646Z,49.79
2019-04-30T11:53:24.093Z,49.31
2019-04-30T11:54:10.656Z,48.93
2019-04-30T11:55:09.822Z,49.87
2019-04-30T11:56:09.603Z,51.66
2019-04-30T11:57:09.617Z,50.95
2019-04-30T11:58:21.153Z,49.44
2019-04-30T11:59:10.567Z,51.73
2019-04-30T12:00:10.743Z,50.55
2019-04-30T12:01:09.546Z,49.62
2019-04-30T12:02:09.563Z,50.42
2019-04-30T12:03:09.522Z,49.69
2019-04-30T12:04:09.511Z,52.19
2019-04-30T12:05:09.503Z,51.48
2019-04-30T12:06:09.515Z,51.71
2019-04-30T12:07:09.478Z,48.50
2019-04-30T12:08:09.629Z,50.52
2019-04-30T12:09:09.456Z,49.74
2019-04-30T12:10:09.557Z,49.64
2019-04-30T12:11:09.432Z,49.74
2019-04-30T12:12:09.423Z,50.75
2019-04-30T12:13:09.647Z,51.18
2019-04-30T12:14:09.401Z,50.67
2019-04-30T12:15:09.462Z,51.66
2019-04-30T12:16:09.378Z,49.74
2019-04-30T12:17:09.366Z,51.35
2019-04-30T12:18:09.383Z,51.23
2019-04-30T12:19:09.342Z,50.55
2019-04-30T12:20:09.334Z,50.65
2019-04-30T12:21:09.334Z,50.47
2019-04-30T12:22:09.308Z,49.74
2019-04-30T12:23:11.727Z,50.45
2019-04-30T12:24:09.287Z,50.73
2019-04-30T12:25:10.051Z,51.23
2019-04-30T12:26:09.336Z,49.90
2019-04-30T12:27:09.252Z,50.80
2019-04-30T12:28:09.565Z,49.92
2019-04-30T12:29:11.173Z,51.64
2019-04-30T12:30:09.222Z,51.91
2019-04-30T12:31:09.852Z,50.80
2019-04-30T12:32:09.209Z,51.23
2019-04-30T12:33:09.186Z,51.31
2019-04-30T12:34:09.177Z,52.01
2019-04-30T12:35:09.163Z,49.79
2019-04-30T12:36:09.175Z,51.73
2019-04-30T12:37:10.750Z,52.97
2019-04-30T12:38:09.170Z,53.58
2019-04-30T12:39:09.123Z,51.73
2019-04-30T12:40:13.908Z,50.62
2019-04-30T12:41:10.119Z,49.90
2019-04-30T12:42:09.121Z,53.42
2019-04-30T12:43:09.074Z,51.53
2019-04-30T12:44:09.063Z,51.64
2019-04-30T12:45:09.554Z,53.55
2019-04-30T12:46:09.048Z,53.98
2019-04-30T12:47:09.663Z,53.27
2019-04-30T12:48:09.018Z,52.67
2019-04-30T12:49:10.244Z,53.58
2019-04-30T12:50:09.583Z,53.78
2019-04-30T12:51:09.011Z,52.56
2019-04-30T12:52:08.975Z,52.16